Pittem, Belgium
Current Conditions -  °F | °C
As of 7:20 AM on Monday 26 Jan 2015 (Local Time) from EBOS Reporting Station
Light Rain Light Rain  
Wind Chill: 39°   Ceiling: 1200
Heat Index: 46°   Visibility: 6mi
Dew Point: 46°   Wind: 17mph
Humidity: 100%   Direction: 250°WSW
Pressure: 30.18"   Gusts: NA
Location:  50.99°N, 3.26°E
Report Text: EBOS 260620Z 25015KT 9000 -RA FEW004 SCT009 BKN012 08/08 Q1022 TEMPO 4000 RA BKN004
Loading
Personal Weather Stations






























Interactive Weather Map New forecast layout! Learn more

10-Day Weather Forecast

Advertisements
Track Severe Weather on mobile